sensor_id;sensor_type;location;lat;lon;timestamp;P1;durP1;ratioP1;P2;durP2;ratioP2
33814;SDS011;20121;51.910;8.406;2023-05-14T00:02:19;3.13;;;2.93;;
33814;SDS011;20121;51.910;8.406;2023-05-14T00:04:45;4.60;;;3.07;;
33814;SDS011;20121;51.910;8.406;2023-05-14T00:07:11;8.18;;;3.30;;
33814;SDS011;20121;51.910;8.406;2023-05-14T00:09:36;5.17;;;3.50;;
33814;SDS011;20121;51.910;8.406;2023-05-14T00:12:02;6.50;;;3.37;;
33814;SDS011;20121;51.910;8.406;2023-05-14T00:14:28;3.83;;;3.20;;
33814;SDS011;20121;51.910;8.406;2023-05-14T00:16:53;4.43;;;2.60;;
33814;SDS011;20121;51.910;8.406;2023-05-14T00:19:19;4.93;;;3.43;;
33814;SDS011;20121;51.910;8.406;2023-05-14T00:21:45;4.07;;;3.23;;
33814;SDS011;20121;51.910;8.406;2023-05-14T00:24:12;3.08;;;2.88;;
33814;SDS011;20121;51.910;8.406;2023-05-14T00:26:37;3.07;;;2.40;;
33814;SDS011;20121;51.910;8.406;2023-05-14T00:29:03;2.50;;;2.30;;
33814;SDS011;20121;51.910;8.406;2023-05-14T00:31:28;3.67;;;3.37;;
33814;SDS011;20121;51.910;8.406;2023-05-14T00:33:54;3.60;;;3.30;;
33814;SDS011;20121;51.910;8.406;2023-05-14T00:36:20;3.43;;;3.13;;
33814;SDS011;20121;51.910;8.406;2023-05-14T00:38:45;3.47;;;3.10;;
33814;SDS011;20121;51.910;8.406;2023-05-14T00:41:11;3.30;;;3.00;;
33814;SDS011;20121;51.910;8.406;2023-05-14T00:43:37;5.60;;;3.53;;
33814;SDS011;20121;51.910;8.406;2023-05-14T00:46:02;2.93;;;2.37;;
33814;SDS011;20121;51.910;8.406;2023-05-14T00:48:28;3.97;;;3.27;;
33814;SDS011;20121;51.910;8.406;2023-05-14T00:50:54;3.75;;;2.67;;
33814;SDS011;20121;51.910;8.406;2023-05-14T00:53:20;5.50;;;4.30;;
33814;SDS011;20121;51.910;8.406;2023-05-14T00:55:46;4.40;;;2.93;;
33814;SDS011;20121;51.910;8.406;2023-05-14T00:58:13;4.90;;;3.17;;
33814;SDS011;20121;51.910;8.406;2023-05-14T01:00:39;4.50;;;2.57;;
33814;SDS011;20121;51.910;8.406;2023-05-14T01:03:06;3.95;;;2.45;;
33814;SDS011;20121;51.910;8.406;2023-05-14T01:05:38;7.20;;;2.97;;
33814;SDS011;20121;51.910;8.406;2023-05-14T01:10:48;3.83;;;3.03;;
33814;SDS011;20121;51.910;8.406;2023-05-14T01:16:09;5.32;;;3.10;;
33814;SDS011;20121;51.910;8.406;2023-05-14T01:18:36;5.40;;;3.40;;
33814;SDS011;20121;51.910;8.406;2023-05-14T01:21:04;3.83;;;3.40;;
33814;SDS011;20121;51.910;8.406;2023-05-14T01:23:42;3.55;;;2.75;;
33814;SDS011;20121;51.910;8.406;2023-05-14T01:26:07;3.70;;;2.80;;
33814;SDS011;20121;51.910;8.406;2023-05-14T01:28:33;3.83;;;3.20;;
33814;SDS011;20121;51.910;8.406;2023-05-14T01:31:11;5.95;;;3.25;;
33814;SDS011;20121;51.910;8.406;2023-05-14T01:33:42;2.88;;;2.55;;
33814;SDS011;20121;51.910;8.406;2023-05-14T01:36:08;3.17;;;2.70;;
33814;SDS011;20121;51.910;8.406;2023-05-14T01:38:34;3.28;;;3.03;;
33814;SDS011;20121;51.910;8.406;2023-05-14T01:41:01;3.60;;;2.83;;
33814;SDS011;20121;51.910;8.406;2023-05-14T01:43:27;3.05;;;2.75;;
33814;SDS011;20121;51.910;8.406;2023-05-14T01:45:53;3.10;;;2.60;;
33814;SDS011;20121;51.910;8.406;2023-05-14T01:48:19;2.90;;;2.70;;
33814;SDS011;20121;51.910;8.406;2023-05-14T01:50:45;2.75;;;2.47;;
33814;SDS011;20121;51.910;8.406;2023-05-14T01:53:11;5.30;;;3.50;;
33814;SDS011;20121;51.910;8.406;2023-05-14T01:55:37;5.63;;;3.40;;
33814;SDS011;20121;51.910;8.406;2023-05-14T01:58:03;10.93;;;3.22;;
33814;SDS011;20121;51.910;8.406;2023-05-14T02:00:29;2.93;;;2.70;;
33814;SDS011;20121;51.910;8.406;2023-05-14T02:02:54;2.47;;;2.27;;
33814;SDS011;20121;51.910;8.406;2023-05-14T02:05:20;4.13;;;3.30;;
33814;SDS011;20121;51.910;8.406;2023-05-14T02:07:45;5.10;;;3.57;;
33814;SDS011;20121;51.910;8.406;2023-05-14T02:10:11;3.00;;;2.70;;
33814;SDS011;20121;51.910;8.406;2023-05-14T02:12:37;3.20;;;2.90;;
33814;SDS011;20121;51.910;8.406;2023-05-14T02:15:03;11.60;;;3.80;;
33814;SDS011;20121;51.910;8.406;2023-05-14T02:17:28;3.90;;;3.00;;
33814;SDS011;20121;51.910;8.406;2023-05-14T02:19:54;6.00;;;3.40;;
33814;SDS011;20121;51.910;8.406;2023-05-14T02:22:20;4.23;;;2.90;;
33814;SDS011;20121;51.910;8.406;2023-05-14T02:24:45;3.30;;;3.00;;
33814;SDS011;20121;51.910;8.406;2023-05-14T02:27:11;4.47;;;4.10;;
33814;SDS011;20121;51.910;8.406;2023-05-14T02:29:37;3.77;;;3.17;;
33814;SDS011;20121;51.910;8.406;2023-05-14T02:32:03;3.10;;;2.80;;
33814;SDS011;20121;51.910;8.406;2023-05-14T02:34:29;2.97;;;2.78;;
33814;SDS011;20121;51.910;8.406;2023-05-14T02:36:55;4.43;;;3.73;;
33814;SDS011;20121;51.910;8.406;2023-05-14T02:39:20;3.90;;;3.30;;
33814;SDS011;20121;51.910;8.406;2023-05-14T02:41:46;4.30;;;3.60;;
33814;SDS011;20121;51.910;8.406;2023-05-14T02:44:11;3.40;;;3.10;;
33814;SDS011;20121;51.910;8.406;2023-05-14T02:46:37;4.10;;;3.00;;
33814;SDS011;20121;51.910;8.406;2023-05-14T02:49:03;2.90;;;2.63;;
33814;SDS011;20121;51.910;8.406;2023-05-14T02:51:28;3.50;;;3.20;;
33814;SDS011;20121;51.910;8.406;2023-05-14T02:53:54;3.00;;;2.67;;
33814;SDS011;20121;51.910;8.406;2023-05-14T02:56:19;6.23;;;3.87;;
33814;SDS011;20121;51.910;8.406;2023-05-14T02:58:46;5.72;;;3.05;;
33814;SDS011;20121;51.910;8.406;2023-05-14T03:01:11;3.13;;;2.90;;
33814;SDS011;20121;51.910;8.406;2023-05-14T03:03:38;4.37;;;3.20;;
33814;SDS011;20121;51.910;8.406;2023-05-14T03:06:04;2.20;;;2.00;;
33814;SDS011;20121;51.910;8.406;2023-05-14T03:08:30;5.40;;;3.83;;
33814;SDS011;20121;51.910;8.406;2023-05-14T03:10:55;3.27;;;2.90;;
33814;SDS011;20121;51.910;8.406;2023-05-14T03:13:21;3.63;;;3.33;;
33814;SDS011;20121;51.910;8.406;2023-05-14T03:15:47;4.50;;;3.00;;
33814;SDS011;20121;51.910;8.406;2023-05-14T03:18:13;2.50;;;2.30;;
33814;SDS011;20121;51.910;8.406;2023-05-14T03:20:39;6.22;;;2.85;;
33814;SDS011;20121;51.910;8.406;2023-05-14T03:23:05;5.47;;;3.42;;
33814;SDS011;20121;51.910;8.406;2023-05-14T03:25:30;5.37;;;4.03;;
33814;SDS011;20121;51.910;8.406;2023-05-14T03:27:56;5.47;;;3.30;;
33814;SDS011;20121;51.910;8.406;2023-05-14T03:30:21;3.90;;;3.20;;
33814;SDS011;20121;51.910;8.406;2023-05-14T03:32:47;3.77;;;2.90;;
33814;SDS011;20121;51.910;8.406;2023-05-14T03:35:14;4.25;;;3.72;;
33814;SDS011;20121;51.910;8.406;2023-05-14T03:37:39;3.27;;;2.87;;
33814;SDS011;20121;51.910;8.406;2023-05-14T03:40:05;4.80;;;3.37;;
33814;SDS011;20121;51.910;8.406;2023-05-14T03:42:31;4.20;;;3.72;;
33814;SDS011;20121;51.910;8.406;2023-05-14T03:44:57;3.57;;;3.13;;
33814;SDS011;20121;51.910;8.406;2023-05-14T03:47:22;2.67;;;2.47;;
33814;SDS011;20121;51.910;8.406;2023-05-14T03:49:48;5.37;;;2.70;;
33814;SDS011;20121;51.910;8.406;2023-05-14T03:52:14;4.40;;;3.00;;
33814;SDS011;20121;51.910;8.406;2023-05-14T03:54:39;5.40;;;3.53;;
33814;SDS011;20121;51.910;8.406;2023-05-14T03:57:05;3.77;;;3.47;;
33814;SDS011;20121;51.910;8.406;2023-05-14T03:59:31;4.53;;;3.20;;
33814;SDS011;20121;51.910;8.406;2023-05-14T04:01:56;3.10;;;2.67;;
33814;SDS011;20121;51.910;8.406;2023-05-14T04:04:22;4.07;;;3.70;;
33814;SDS011;20121;51.910;8.406;2023-05-14T04:06:48;10.83;;;3.50;;
33814;SDS011;20121;51.910;8.406;2023-05-14T04:09:13;3.90;;;2.80;;
33814;SDS011;20121;51.910;8.406;2023-05-14T04:11:39;3.70;;;3.10;;
33814;SDS011;20121;51.910;8.406;2023-05-14T04:14:05;7.70;;;3.33;;
33814;SDS011;20121;51.910;8.406;2023-05-14T04:16:30;5.80;;;4.80;;
33814;SDS011;20121;51.910;8.406;2023-05-14T04:18:56;2.70;;;2.50;;
33814;SDS011;20121;51.910;8.406;2023-05-14T04:21:22;3.43;;;3.13;;
33814;SDS011;20121;51.910;8.406;2023-05-14T04:23:47;3.47;;;3.07;;
33814;SDS011;20121;51.910;8.406;2023-05-14T04:26:13;3.42;;;3.08;;
33814;SDS011;20121;51.910;8.406;2023-05-14T04:28:39;3.40;;;3.10;;
33814;SDS011;20121;51.910;8.406;2023-05-14T04:31:04;3.53;;;3.33;;
33814;SDS011;20121;51.910;8.406;2023-05-14T04:33:30;3.90;;;2.83;;
33814;SDS011;20121;51.910;8.406;2023-05-14T04:35:56;3.20;;;2.97;;
33814;SDS011;20121;51.910;8.406;2023-05-14T04:38:21;3.13;;;2.90;;
33814;SDS011;20121;51.910;8.406;2023-05-14T04:40:47;6.70;;;3.10;;
33814;SDS011;20121;51.910;8.406;2023-05-14T04:43:12;3.57;;;3.10;;
33814;SDS011;20121;51.910;8.406;2023-05-14T04:45:38;3.97;;;3.40;;
33814;SDS011;20121;51.910;8.406;2023-05-14T04:48:05;2.55;;;2.40;;
33814;SDS011;20121;51.910;8.406;2023-05-14T04:50:31;2.70;;;2.40;;
33814;SDS011;20121;51.910;8.406;2023-05-14T04:52:58;3.35;;;2.88;;
33814;SDS011;20121;51.910;8.406;2023-05-14T04:55:23;3.33;;;3.03;;
33814;SDS011;20121;51.910;8.406;2023-05-14T04:57:49;5.00;;;2.90;;
33814;SDS011;20121;51.910;8.406;2023-05-14T05:00:15;3.97;;;3.30;;
33814;SDS011;20121;51.910;8.406;2023-05-14T05:02:41;4.53;;;3.10;;
33814;SDS011;20121;51.910;8.406;2023-05-14T05:05:07;3.40;;;2.90;;
33814;SDS011;20121;51.910;8.406;2023-05-14T05:07:33;3.75;;;2.80;;
33814;SDS011;20121;51.910;8.406;2023-05-14T05:09:59;4.03;;;3.40;;
33814;SDS011;20121;51.910;8.406;2023-05-14T05:12:24;3.30;;;2.60;;
33814;SDS011;20121;51.910;8.406;2023-05-14T05:14:53;3.67;;;2.90;;
33814;SDS011;20121;51.910;8.406;2023-05-14T05:17:20;4.05;;;2.30;;
33814;SDS011;20121;51.910;8.406;2023-05-14T05:19:46;5.40;;;3.40;;
33814;SDS011;20121;51.910;8.406;2023-05-14T05:22:12;2.60;;;2.40;;
33814;SDS011;20121;51.910;8.406;2023-05-14T05:24:37;5.57;;;3.43;;
33814;SDS011;20121;51.910;8.406;2023-05-14T05:27:03;3.17;;;2.80;;
33814;SDS011;20121;51.910;8.406;2023-05-14T05:29:30;3.22;;;2.92;;
33814;SDS011;20121;51.910;8.406;2023-05-14T05:31:55;3.67;;;3.37;;
33814;SDS011;20121;51.910;8.406;2023-05-14T05:34:21;2.60;;;2.17;;
33814;SDS011;20121;51.910;8.406;2023-05-14T05:36:46;2.53;;;2.33;;
33814;SDS011;20121;51.910;8.406;2023-05-14T05:39:12;2.47;;;2.27;;
33814;SDS011;20121;51.910;8.406;2023-05-14T05:41:38;2.57;;;2.20;;
33814;SDS011;20121;51.910;8.406;2023-05-14T05:44:04;6.05;;;2.65;;
33814;SDS011;20121;51.910;8.406;2023-05-14T05:46:30;2.33;;;2.13;;
33814;SDS011;20121;51.910;8.406;2023-05-14T05:48:56;3.77;;;2.20;;
33814;SDS011;20121;51.910;8.406;2023-05-14T05:51:21;3.27;;;2.60;;
33814;SDS011;20121;51.910;8.406;2023-05-14T05:53:47;3.20;;;2.33;;
33814;SDS011;20121;51.910;8.406;2023-05-14T05:56:13;5.20;;;2.88;;
33814;SDS011;20121;51.910;8.406;2023-05-14T05:58:40;2.92;;;2.55;;
33814;SDS011;20121;51.910;8.406;2023-05-14T06:01:06;2.28;;;2.08;;
33814;SDS011;20121;51.910;8.406;2023-05-14T06:03:33;3.00;;;2.05;;
33814;SDS011;20121;51.910;8.406;2023-05-14T06:06:00;2.65;;;2.45;;
33814;SDS011;20121;51.910;8.406;2023-05-14T06:08:25;2.43;;;2.23;;
33814;SDS011;20121;51.910;8.406;2023-05-14T06:10:51;2.10;;;1.93;;
33814;SDS011;20121;51.910;8.406;2023-05-14T06:13:16;2.10;;;1.90;;
33814;SDS011;20121;51.910;8.406;2023-05-14T06:15:42;3.03;;;2.50;;
33814;SDS011;20121;51.910;8.406;2023-05-14T06:18:08;3.47;;;2.70;;
33814;SDS011;20121;51.910;8.406;2023-05-14T06:20:35;2.30;;;1.83;;
33814;SDS011;20121;51.910;8.406;2023-05-14T06:23:01;2.65;;;2.40;;
33814;SDS011;20121;51.910;8.406;2023-05-14T06:25:28;103.90;;;8.70;;
33814;SDS011;20121;51.910;8.406;2023-05-14T06:27:55;3.13;;;2.40;;
33814;SDS011;20121;51.910;8.406;2023-05-14T06:30:21;4.03;;;2.53;;
33814;SDS011;20121;51.910;8.406;2023-05-14T06:32:47;2.83;;;2.50;;
33814;SDS011;20121;51.910;8.406;2023-05-14T06:35:13;3.10;;;2.40;;
33814;SDS011;20121;51.910;8.406;2023-05-14T06:37:41;2.45;;;1.95;;
33814;SDS011;20121;51.910;8.406;2023-05-14T06:40:08;3.50;;;2.25;;
33814;SDS011;20121;51.910;8.406;2023-05-14T06:42:36;3.40;;;2.20;;
33814;SDS011;20121;51.910;8.406;2023-05-14T06:45:03;3.10;;;2.20;;
33814;SDS011;20121;51.910;8.406;2023-05-14T06:47:31;2.85;;;1.58;;
33814;SDS011;20121;51.910;8.406;2023-05-14T06:49:58;2.10;;;1.90;;
33814;SDS011;20121;51.910;8.406;2023-05-14T06:52:25;2.22;;;1.80;;
33814;SDS011;20121;51.910;8.406;2023-05-14T06:54:53;2.40;;;2.20;;
33814;SDS011;20121;51.910;8.406;2023-05-14T06:57:19;1.50;;;1.40;;
33814;SDS011;20121;51.910;8.406;2023-05-14T06:59:46;2.53;;;1.85;;
33814;SDS011;20121;51.910;8.406;2023-05-14T07:02:15;2.15;;;1.95;;
33814;SDS011;20121;51.910;8.406;2023-05-14T07:04:42;2.22;;;2.03;;
33814;SDS011;20121;51.910;8.406;2023-05-14T07:07:08;2.10;;;1.90;;
33814;SDS011;20121;51.910;8.406;2023-05-14T07:09:39;1.60;;;1.50;;
33814;SDS011;20121;51.910;8.406;2023-05-14T07:12:06;2.95;;;1.80;;
33814;SDS011;20121;51.910;8.406;2023-05-14T07:14:32;3.10;;;2.13;;
33814;SDS011;20121;51.910;8.406;2023-05-14T07:16:58;3.00;;;1.83;;
33814;SDS011;20121;51.910;8.406;2023-05-14T07:19:25;3.33;;;2.35;;
33814;SDS011;20121;51.910;8.406;2023-05-14T07:21:53;1.60;;;1.30;;
33814;SDS011;20121;51.910;8.406;2023-05-14T07:24:20;2.20;;;2.10;;
33814;SDS011;20121;51.910;8.406;2023-05-14T07:26:47;2.10;;;1.95;;
33814;SDS011;20121;51.910;8.406;2023-05-14T07:29:14;2.35;;;2.15;;
33814;SDS011;20121;51.910;8.406;2023-05-14T07:31:41;1.25;;;1.15;;
33814;SDS011;20121;51.910;8.406;2023-05-14T07:34:08;1.90;;;1.70;;
33814;SDS011;20121;51.910;8.406;2023-05-14T07:36:35;2.10;;;1.88;;
33814;SDS011;20121;51.910;8.406;2023-05-14T07:39:02;1.92;;;1.65;;
33814;SDS011;20121;51.910;8.406;2023-05-14T07:41:29;2.05;;;1.85;;
33814;SDS011;20121;51.910;8.406;2023-05-14T07:43:56;2.22;;;2.03;;
33814;SDS011;20121;51.910;8.406;2023-05-14T07:46:23;2.20;;;2.00;;
33814;SDS011;20121;51.910;8.406;2023-05-14T07:48:50;2.58;;;2.38;;
33814;SDS011;20121;51.910;8.406;2023-05-14T07:51:16;2.30;;;2.03;;
33814;SDS011;20121;51.910;8.406;2023-05-14T07:53:43;6.72;;;1.80;;
33814;SDS011;20121;51.910;8.406;2023-05-14T07:56:09;2.13;;;1.92;;
33814;SDS011;20121;51.910;8.406;2023-05-14T07:58:36;2.10;;;1.90;;
33814;SDS011;20121;51.910;8.406;2023-05-14T08:01:01;3.07;;;2.30;;
33814;SDS011;20121;51.910;8.406;2023-05-14T08:03:31;4.00;;;2.42;;
33814;SDS011;20121;51.910;8.406;2023-05-14T08:05:56;2.77;;;1.90;;
33814;SDS011;20121;51.910;8.406;2023-05-14T08:08:22;2.17;;;1.97;;
33814;SDS011;20121;51.910;8.406;2023-05-14T08:10:49;3.15;;;2.13;;
33814;SDS011;20121;51.910;8.406;2023-05-14T08:13:16;2.30;;;2.10;;
33814;SDS011;20121;51.910;8.406;2023-05-14T08:15:42;7.18;;;3.05;;
33814;SDS011;20121;51.910;8.406;2023-05-14T08:18:09;2.40;;;2.20;;
33814;SDS011;20121;51.910;8.406;2023-05-14T08:20:36;3.28;;;2.42;;
33814;SDS011;20121;51.910;8.406;2023-05-14T08:23:02;1.98;;;1.80;;
33814;SDS011;20121;51.910;8.406;2023-05-14T08:25:29;1.80;;;1.70;;
33814;SDS011;20121;51.910;8.406;2023-05-14T08:27:54;1.90;;;1.80;;
33814;SDS011;20121;51.910;8.406;2023-05-14T08:30:20;3.07;;;2.73;;
33814;SDS011;20121;51.910;8.406;2023-05-14T08:32:46;3.30;;;2.28;;
33814;SDS011;20121;51.910;8.406;2023-05-14T08:35:12;2.30;;;2.10;;
33814;SDS011;20121;51.910;8.406;2023-05-14T08:37:37;1.53;;;1.40;;
33814;SDS011;20121;51.910;8.406;2023-05-14T08:40:03;1.47;;;1.37;;
33814;SDS011;20121;51.910;8.406;2023-05-14T08:42:29;1.88;;;1.77;;
33814;SDS011;20121;51.910;8.406;2023-05-14T08:45:02;2.20;;;1.63;;
33814;SDS011;20121;51.910;8.406;2023-05-14T08:47:29;3.03;;;2.20;;
33814;SDS011;20121;51.910;8.406;2023-05-14T08:49:59;1.27;;;1.17;;
33814;SDS011;20121;51.910;8.406;2023-05-14T08:52:29;2.88;;;1.73;;
33814;SDS011;20121;51.910;8.406;2023-05-14T08:54:56;1.92;;;1.73;;
33814;SDS011;20121;51.910;8.406;2023-05-14T08:57:24;1.60;;;1.50;;
33814;SDS011;20121;51.910;8.406;2023-05-14T08:59:51;2.00;;;1.80;;
33814;SDS011;20121;51.910;8.406;2023-05-14T09:02:17;1.80;;;1.23;;
33814;SDS011;20121;51.910;8.406;2023-05-14T09:04:46;1.40;;;1.30;;
33814;SDS011;20121;51.910;8.406;2023-05-14T09:07:16;2.10;;;1.42;;
33814;SDS011;20121;51.910;8.406;2023-05-14T09:09:42;1.10;;;1.00;;
33814;SDS011;20121;51.910;8.406;2023-05-14T09:12:09;2.17;;;1.50;;
33814;SDS011;20121;51.910;8.406;2023-05-14T09:14:35;1.57;;;1.47;;
33814;SDS011;20121;51.910;8.406;2023-05-14T09:17:01;1.97;;;1.20;;
33814;SDS011;20121;51.910;8.406;2023-05-14T09:19:27;1.60;;;1.50;;
33814;SDS011;20121;51.910;8.406;2023-05-14T09:21:55;1.77;;;1.67;;
33814;SDS011;20121;51.910;8.406;2023-05-14T09:24:25;1.60;;;1.45;;
33814;SDS011;20121;51.910;8.406;2023-05-14T09:26:55;1.25;;;1.15;;
33814;SDS011;20121;51.910;8.406;2023-05-14T09:29:25;1.55;;;1.33;;
33814;SDS011;20121;51.910;8.406;2023-05-14T09:31:54;1.67;;;1.00;;
33814;SDS011;20121;51.910;8.406;2023-05-14T09:34:22;1.65;;;1.00;;
33814;SDS011;20121;51.910;8.406;2023-05-14T09:36:48;1.60;;;1.27;;
33814;SDS011;20121;51.910;8.406;2023-05-14T09:39:13;1.10;;;1.00;;
33814;SDS011;20121;51.910;8.406;2023-05-14T09:41:40;1.52;;;1.20;;
33814;SDS011;20121;51.910;8.406;2023-05-14T09:44:05;1.10;;;1.00;;
33814;SDS011;20121;51.910;8.406;2023-05-14T09:46:31;0.93;;;0.83;;
33814;SDS011;20121;51.910;8.406;2023-05-14T09:48:57;1.03;;;0.93;;
33814;SDS011;20121;51.910;8.406;2023-05-14T09:51:22;1.60;;;1.50;;
33814;SDS011;20121;51.910;8.406;2023-05-14T09:53:49;1.50;;;1.40;;
33814;SDS011;20121;51.910;8.406;2023-05-14T09:56:17;1.55;;;1.45;;
33814;SDS011;20121;51.910;8.406;2023-05-14T09:58:42;1.90;;;1.80;;
33814;SDS011;20121;51.910;8.406;2023-05-14T10:01:08;1.30;;;1.20;;
33814;SDS011;20121;51.910;8.406;2023-05-14T10:03:34;1.10;;;1.00;;
33814;SDS011;20121;51.910;8.406;2023-05-14T10:06:03;1.52;;;1.42;;
33814;SDS011;20121;51.910;8.406;2023-05-14T10:08:32;1.33;;;1.00;;
33814;SDS011;20121;51.910;8.406;2023-05-14T10:11:00;1.05;;;0.95;;
33814;SDS011;20121;51.910;8.406;2023-05-14T10:13:35;1.00;;;0.90;;
33814;SDS011;20121;51.910;8.406;2023-05-14T10:16:06;1.50;;;1.38;;
33814;SDS011;20121;51.910;8.406;2023-05-14T10:18:42;1.15;;;1.05;;
33814;SDS011;20121;51.910;8.406;2023-05-14T10:21:12;1.23;;;1.13;;
33814;SDS011;20121;51.910;8.406;2023-05-14T10:23:39;1.65;;;1.30;;
33814;SDS011;20121;51.910;8.406;2023-05-14T10:26:05;1.48;;;1.00;;
33814;SDS011;20121;51.910;8.406;2023-05-14T10:28:32;1.10;;;1.00;;
33814;SDS011;20121;51.910;8.406;2023-05-14T10:30:58;1.27;;;1.00;;
33814;SDS011;20121;51.910;8.406;2023-05-14T10:33:24;1.20;;;1.10;;
33814;SDS011;20121;51.910;8.406;2023-05-14T10:36:00;3.38;;;1.17;;
33814;SDS011;20121;51.910;8.406;2023-05-14T10:38:29;3.65;;;1.10;;
33814;SDS011;20121;51.910;8.406;2023-05-14T10:41:03;1.10;;;1.00;;
33814;SDS011;20121;51.910;8.406;2023-05-14T10:43:30;1.15;;;1.02;;
33814;SDS011;20121;51.910;8.406;2023-05-14T10:46:01;2.15;;;1.23;;
33814;SDS011;20121;51.910;8.406;2023-05-14T10:48:27;1.67;;;1.30;;
33814;SDS011;20121;51.910;8.406;2023-05-14T10:50:54;2.80;;;0.80;;
33814;SDS011;20121;51.910;8.406;2023-05-14T10:53:25;0.90;;;0.90;;
33814;SDS011;20121;51.910;8.406;2023-05-14T10:55:55;1.00;;;0.88;;
33814;SDS011;20121;51.910;8.406;2023-05-14T10:58:21;1.10;;;1.00;;
33814;SDS011;20121;51.910;8.406;2023-05-14T11:00:48;0.98;;;0.82;;
33814;SDS011;20121;51.910;8.406;2023-05-14T11:03:20;1.52;;;1.20;;
33814;SDS011;20121;51.910;8.406;2023-05-14T11:05:47;1.10;;;1.00;;
33814;SDS011;20121;51.910;8.406;2023-05-14T11:08:15;2.75;;;1.20;;
33814;SDS011;20121;51.910;8.406;2023-05-14T11:10:42;1.10;;;0.90;;
33814;SDS011;20121;51.910;8.406;2023-05-14T11:13:11;1.13;;;1.00;;
33814;SDS011;20121;51.910;8.406;2023-05-14T11:15:40;1.75;;;0.95;;
33814;SDS011;20121;51.910;8.406;2023-05-14T11:18:12;1.63;;;1.13;;
33814;SDS011;20121;51.910;8.406;2023-05-14T11:20:39;1.67;;;1.40;;
33814;SDS011;20121;51.910;8.406;2023-05-14T11:23:07;1.20;;;1.08;;
33814;SDS011;20121;51.910;8.406;2023-05-14T11:25:34;2.55;;;2.38;;
33814;SDS011;20121;51.910;8.406;2023-05-14T11:28:01;1.08;;;1.00;;
33814;SDS011;20121;51.910;8.406;2023-05-14T11:30:28;1.33;;;1.00;;
33814;SDS011;20121;51.910;8.406;2023-05-14T11:32:57;1.10;;;1.00;;
33814;SDS011;20121;51.910;8.406;2023-05-14T11:35:24;1.20;;;1.10;;
33814;SDS011;20121;51.910;8.406;2023-05-14T11:37:51;1.60;;;1.20;;
33814;SDS011;20121;51.910;8.406;2023-05-14T11:40:18;3.40;;;1.50;;
33814;SDS011;20121;51.910;8.406;2023-05-14T11:42:45;1.17;;;1.08;;
33814;SDS011;20121;51.910;8.406;2023-05-14T11:45:13;1.08;;;0.98;;
33814;SDS011;20121;51.910;8.406;2023-05-14T11:47:40;1.27;;;1.10;;
33814;SDS011;20121;51.910;8.406;2023-05-14T11:50:08;1.55;;;1.10;;
33814;SDS011;20121;51.910;8.406;2023-05-14T11:52:38;1.38;;;1.10;;
33814;SDS011;20121;51.910;8.406;2023-05-14T11:55:09;1.23;;;1.00;;
33814;SDS011;20121;51.910;8.406;2023-05-14T11:57:36;1.25;;;1.13;;
33814;SDS011;20121;51.910;8.406;2023-05-14T12:00:06;1.33;;;1.23;;
33814;SDS011;20121;51.910;8.406;2023-05-14T12:02:34;1.48;;;1.20;;
33814;SDS011;20121;51.910;8.406;2023-05-14T12:05:02;0.90;;;0.90;;
33814;SDS011;20121;51.910;8.406;2023-05-14T12:07:31;1.38;;;1.27;;
33814;SDS011;20121;51.910;8.406;2023-05-14T12:09:59;1.33;;;1.23;;
33814;SDS011;20121;51.910;8.406;2023-05-14T12:12:26;1.10;;;1.00;;
33814;SDS011;20121;51.910;8.406;2023-05-14T12:14:53;0.73;;;0.73;;
33814;SDS011;20121;51.910;8.406;2023-05-14T12:17:21;1.35;;;1.25;;
33814;SDS011;20121;51.910;8.406;2023-05-14T12:19:49;1.30;;;1.20;;
33814;SDS011;20121;51.910;8.406;2023-05-14T12:22:17;1.20;;;1.02;;
33814;SDS011;20121;51.910;8.406;2023-05-14T12:24:57;1.33;;;1.23;;
33814;SDS011;20121;51.910;8.406;2023-05-14T12:27:25;2.78;;;1.23;;
33814;SDS011;20121;51.910;8.406;2023-05-14T12:32:27;1.50;;;1.30;;
33814;SDS011;20121;51.910;8.406;2023-05-14T12:34:54;1.98;;;1.67;;
33814;SDS011;20121;51.910;8.406;2023-05-14T12:37:23;1.50;;;1.40;;
33814;SDS011;20121;51.910;8.406;2023-05-14T12:39:53;1.40;;;1.10;;
33814;SDS011;20121;51.910;8.406;2023-05-14T12:42:20;1.52;;;1.40;;
33814;SDS011;20121;51.910;8.406;2023-05-14T12:44:49;1.40;;;1.27;;
33814;SDS011;20121;51.910;8.406;2023-05-14T12:47:18;1.33;;;1.23;;
33814;SDS011;20121;51.910;8.406;2023-05-14T12:49:46;1.20;;;1.00;;
33814;SDS011;20121;51.910;8.406;2023-05-14T12:52:14;0.98;;;0.90;;
33814;SDS011;20121;51.910;8.406;2023-05-14T12:54:41;1.80;;;1.10;;
33814;SDS011;20121;51.910;8.406;2023-05-14T12:57:08;1.10;;;1.00;;
33814;SDS011;20121;51.910;8.406;2023-05-14T12:59:35;1.30;;;1.20;;
33814;SDS011;20121;51.910;8.406;2023-05-14T13:02:02;1.80;;;1.30;;
33814;SDS011;20121;51.910;8.406;2023-05-14T13:04:29;1.40;;;1.30;;
33814;SDS011;20121;51.910;8.406;2023-05-14T13:06:56;1.17;;;1.10;;
33814;SDS011;20121;51.910;8.406;2023-05-14T13:09:23;1.30;;;1.20;;
33814;SDS011;20121;51.910;8.406;2023-05-14T13:11:52;1.50;;;1.27;;
33814;SDS011;20121;51.910;8.406;2023-05-14T13:14:19;0.98;;;0.98;;
33814;SDS011;20121;51.910;8.406;2023-05-14T13:16:47;1.15;;;0.90;;
33814;SDS011;20121;51.910;8.406;2023-05-14T13:19:14;1.27;;;1.13;;
33814;SDS011;20121;51.910;8.406;2023-05-14T13:21:40;1.90;;;1.80;;
33814;SDS011;20121;51.910;8.406;2023-05-14T13:24:06;1.67;;;1.50;;
33814;SDS011;20121;51.910;8.406;2023-05-14T13:26:33;1.25;;;1.15;;
33814;SDS011;20121;51.910;8.406;2023-05-14T13:29:00;1.45;;;1.20;;
33814;SDS011;20121;51.910;8.406;2023-05-14T13:31:26;2.00;;;1.07;;
33814;SDS011;20121;51.910;8.406;2023-05-14T13:33:51;2.00;;;1.80;;
33814;SDS011;20121;51.910;8.406;2023-05-14T13:36:17;1.23;;;1.10;;
33814;SDS011;20121;51.910;8.406;2023-05-14T13:38:43;1.80;;;1.60;;
33814;SDS011;20121;51.910;8.406;2023-05-14T13:41:11;1.85;;;1.30;;
33814;SDS011;20121;51.910;8.406;2023-05-14T13:43:37;1.40;;;1.30;;
33814;SDS011;20121;51.910;8.406;2023-05-14T13:46:03;1.73;;;1.63;;
33814;SDS011;20121;51.910;8.406;2023-05-14T13:48:29;1.17;;;1.05;;
33814;SDS011;20121;51.910;8.406;2023-05-14T13:50:55;1.10;;;1.00;;
33814;SDS011;20121;51.910;8.406;2023-05-14T13:53:21;1.10;;;1.00;;
33814;SDS011;20121;51.910;8.406;2023-05-14T13:55:48;1.50;;;1.33;;
33814;SDS011;20121;51.910;8.406;2023-05-14T13:58:14;0.90;;;0.82;;
33814;SDS011;20121;51.910;8.406;2023-05-14T14:00:40;1.00;;;0.90;;
33814;SDS011;20121;51.910;8.406;2023-05-14T14:03:06;1.27;;;0.80;;
33814;SDS011;20121;51.910;8.406;2023-05-14T14:05:33;1.30;;;1.20;;
33814;SDS011;20121;51.910;8.406;2023-05-14T14:07:59;1.10;;;1.00;;
33814;SDS011;20121;51.910;8.406;2023-05-14T14:10:25;2.77;;;1.50;;
33814;SDS011;20121;51.910;8.406;2023-05-14T14:12:51;1.10;;;0.90;;
33814;SDS011;20121;51.910;8.406;2023-05-14T14:15:16;1.30;;;1.20;;
33814;SDS011;20121;51.910;8.406;2023-05-14T14:17:42;3.63;;;1.20;;
33814;SDS011;20121;51.910;8.406;2023-05-14T14:20:08;1.70;;;1.20;;
33814;SDS011;20121;51.910;8.406;2023-05-14T14:22:34;0.90;;;0.80;;
33814;SDS011;20121;51.910;8.406;2023-05-14T14:25:00;1.23;;;1.13;;
33814;SDS011;20121;51.910;8.406;2023-05-14T14:27:26;2.75;;;1.52;;
33814;SDS011;20121;51.910;8.406;2023-05-14T14:29:52;2.87;;;1.13;;
33814;SDS011;20121;51.910;8.406;2023-05-14T14:32:17;1.30;;;1.20;;
33814;SDS011;20121;51.910;8.406;2023-05-14T14:34:44;1.15;;;1.05;;
33814;SDS011;20121;51.910;8.406;2023-05-14T14:37:10;1.50;;;1.40;;
33814;SDS011;20121;51.910;8.406;2023-05-14T14:39:35;1.33;;;1.23;;
33814;SDS011;20121;51.910;8.406;2023-05-14T14:42:01;1.20;;;1.10;;
33814;SDS011;20121;51.910;8.406;2023-05-14T14:44:27;1.13;;;1.03;;
33814;SDS011;20121;51.910;8.406;2023-05-14T14:46:52;1.73;;;0.90;;
33814;SDS011;20121;51.910;8.406;2023-05-14T14:49:18;1.30;;;1.20;;
33814;SDS011;20121;51.910;8.406;2023-05-14T14:51:43;1.63;;;1.50;;
33814;SDS011;20121;51.910;8.406;2023-05-14T14:54:10;1.45;;;1.17;;